Time;durP1;ratioP1;P1;durP2;ratioP2;P2;SDS_P1;SDS_P2;PMS_P1;PMS_P2;Temp;Humidity;BMP_temperature;BMP_pressure;BME280_temperature;BME280_humidity;BME280_pressure;Samples;Min_cycle;Max_cycle;Signal;HPM_P1;HPM_P2
2021/06/30 00:00:40;;;;;;;3.75;3.10;;;;;;;22.60;59.47;101114.34;5105026;28;20420;-64
2021/06/30 00:03:06;;;;;;;3.33;2.88;;;;;;;22.56;59.29;101100.63;5104302;28;20114;-64
2021/06/30 00:05:31;;;;;;;3.20;2.58;;;;;;;22.55;59.66;101100.81;5103567;28;20118;-64
2021/06/30 00:07:57;;;;;;;3.35;2.90;;;;;;;22.57;59.27;101109.41;5102494;28;20031;-64
2021/06/30 00:10:22;;;;;;;3.22;2.67;;;;;;;22.56;59.67;101102.47;5105256;28;20368;-64
2021/06/30 00:12:48;;;;;;;3.60;3.10;;;;;;;22.56;59.56;101105.94;5103035;28;20035;-64
2021/06/30 00:15:20;;;;;;;3.30;2.88;;;;;;;22.55;59.39;101101.63;5104300;28;20039;-64
2021/06/30 00:17:46;;;;;;;3.80;3.10;;;;;;;22.55;59.15;101099.00;5084127;28;20043;-64
2021/06/30 00:20:12;;;;;;;4.72;3.22;;;;;;;22.52;59.37;101104.69;5103057;28;20101;-63
2021/06/30 00:22:38;;;;;;;3.60;3.13;;;;;;;22.53;59.23;101110.81;5105749;28;20042;-64
2021/06/30 00:25:05;;;;;;;3.45;2.90;;;;;;;22.52;59.20;101109.16;5103408;28;20512;-63
2021/06/30 00:27:31;;;;;;;4.00;2.97;;;;;;;22.52;59.34;101111.81;5104266;28;20027;-63
2021/06/30 00:29:56;;;;;;;4.93;3.50;;;;;;;22.51;59.23;101107.53;5103277;28;20042;-64
2021/06/30 00:32:22;;;;;;;3.88;3.42;;;;;;;22.50;59.31;101096.09;5104746;28;20409;-64
2021/06/30 00:34:47;;;;;;;3.75;3.17;;;;;;;22.49;59.66;101099.75;5104646;28;20088;-63
2021/06/30 00:37:13;;;;;;;4.10;3.22;;;;;;;22.48;59.41;101105.25;5104115;28;20031;-63
2021/06/30 00:39:38;;;;;;;3.97;2.75;;;;;;;22.42;59.52;101090.91;5105264;28;20042;-64
2021/06/30 00:42:04;;;;;;;3.35;3.05;;;;;;;22.46;59.11;101091.38;5104290;28;20035;-63
2021/06/30 00:44:35;;;;;;;4.35;3.33;;;;;;;22.47;59.42;101093.00;5104179;28;20035;-63
2021/06/30 00:47:02;;;;;;;3.78;3.00;;;;;;;22.45;59.13;101095.03;5100977;28;20858;-64
2021/06/30 00:49:28;;;;;;;4.55;2.90;;;;;;;22.45;59.40;101087.91;5103018;28;20044;-65
2021/06/30 00:51:54;;;;;;;4.53;3.30;;;;;;;22.43;59.55;101081.94;5104780;28;20047;-64
2021/06/30 00:54:19;;;;;;;4.57;3.10;;;;;;;22.45;59.23;101087.06;5103566;28;20482;-64
2021/06/30 00:56:45;;;;;;;4.18;3.25;;;;;;;22.44;59.59;101090.72;5101574;28;20046;-64
2021/06/30 00:59:12;;;;;;;4.15;3.00;;;;;;;22.43;59.59;101086.41;5101790;28;20040;-64
2021/06/30 01:01:38;;;;;;;4.68;3.25;;;;;;;22.41;59.24;101083.13;5102871;28;20074;-64
2021/06/30 01:04:04;;;;;;;3.42;2.80;;;;;;;22.41;59.42;101088.44;5103926;28;20035;-64
2021/06/30 01:06:29;;;;;;;3.65;3.30;;;;;;;22.41;59.34;101088.44;5086673;28;20433;-64
2021/06/30 01:08:56;;;;;;;3.47;3.08;;;;;;;22.28;59.21;101070.59;5106397;28;20032;-64
2021/06/30 01:11:21;;;;;;;3.65;3.30;;;;;;;22.38;59.51;101089.66;5106753;28;20119;-64
2021/06/30 01:13:47;;;;;;;3.00;2.70;;;;;;;22.40;59.64;101094.75;5107491;28;20114;-64
2021/06/30 01:16:14;;;;;;;4.25;3.05;;;;;;;22.39;59.49;101096.59;5106850;28;20047;-64
2021/06/30 01:18:40;;;;;;;4.00;2.97;;;;;;;22.38;59.12;101094.13;5107016;28;20089;-64
2021/06/30 01:21:09;;;;;;;4.05;3.35;;;;;;;22.38;59.36;101091.47;5107591;28;20032;-64
2021/06/30 01:23:35;;;;;;;3.63;3.15;;;;;;;22.37;59.57;101087.19;5107349;28;20043;-63
2021/06/30 01:26:00;;;;;;;3.45;3.15;;;;;;;22.36;59.16;101091.66;5108521;28;20039;-63
2021/06/30 01:28:27;;;;;;;3.90;3.50;;;;;;;22.36;59.36;101086.38;5106805;28;20032;-64
2021/06/30 01:30:54;;;;;;;4.63;3.40;;;;;;;22.36;59.24;101089.03;5107823;28;20489;-64
2021/06/30 01:33:19;;;;;;;3.42;3.10;;;;;;;22.32;59.31;101087.75;5106472;28;20023;-64
2021/06/30 01:35:45;;;;;;;4.30;3.58;;;;;;;22.35;59.49;101094.50;5106538;28;20401;-64
2021/06/30 01:38:10;;;;;;;3.67;2.92;;;;;;;22.29;59.42;101083.66;5107331;28;20128;-64
2021/06/30 01:40:36;;;;;;;3.97;3.05;;;;;;;22.34;59.52;101090.22;5106015;28;20050;-64
2021/06/30 01:43:03;;;;;;;3.35;3.05;;;;;;;22.33;59.31;101094.72;5106431;28;20044;-63
2021/06/30 01:45:29;;;;;;;3.53;3.00;;;;;;;22.33;59.13;101085.94;5090241;28;20031;-64
2021/06/30 01:47:55;;;;;;;4.38;3.15;;;;;;;22.31;59.37;101089.59;5106867;28;20063;-64
2021/06/30 01:50:20;;;;;;;4.70;3.20;;;;;;;22.29;59.56;101085.50;5104511;28;20058;-64
2021/06/30 01:52:46;;;;;;;3.35;3.05;;;;;;;22.31;59.18;101088.78;5105662;28;20909;-64
2021/06/30 01:55:13;;;;;;;3.55;3.00;;;;;;;22.30;59.13;101080.00;5106609;28;20039;-64
2021/06/30 01:57:44;;;;;;;3.50;2.85;;;;;;;22.30;59.31;101080.00;5106740;28;20052;-64
2021/06/30 02:00:12;;;;;;;3.95;3.30;;;;;;;22.29;59.43;101081.00;5106531;28;20032;-64
2021/06/30 02:02:39;;;;;;;3.88;3.10;;;;;;;22.29;59.23;101082.84;5105018;28;20515;-64
2021/06/30 02:05:08;;;;;;;5.05;3.28;;;;;;;22.28;59.57;101079.38;5086434;28;20565;-64
2021/06/30 02:07:34;;;;;;;4.47;3.45;;;;;;;22.28;59.20;101075.91;5106864;28;20031;-64
2021/06/30 02:10:01;;;;;;;3.70;3.30;;;;;;;22.28;59.17;101075.91;5108041;28;20643;-64
2021/06/30 02:12:26;;;;;;;4.75;3.40;;;;;;;22.27;59.44;101075.06;5104578;28;20044;-64
2021/06/30 02:14:52;;;;;;;3.42;2.90;;;;;;;22.26;59.15;101076.09;5102953;28;20047;-64
2021/06/30 02:17:19;;;;;;;3.63;3.30;;;;;;;22.27;59.04;101072.41;5106563;28;20031;-64
2021/06/30 02:19:45;;;;;;;3.78;3.30;;;;;;;22.26;59.08;101065.47;5105096;28;20043;-64
2021/06/30 02:22:11;;;;;;;5.60;3.38;;;;;;;22.22;59.29;101061.53;5106442;28;20042;-64
2021/06/30 02:24:37;;;;;;;4.28;3.40;;;;;;;22.24;59.52;101067.47;5105451;28;20043;-64
2021/06/30 02:27:03;;;;;;;4.07;3.47;;;;;;;22.24;59.37;101070.13;5106968;28;20035;-64
2021/06/30 02:29:29;;;;;;;3.42;3.10;;;;;;;22.21;59.36;101067.03;5106501;28;20062;-64
2021/06/30 02:31:54;;;;;;;3.70;3.35;;;;;;;22.22;59.38;101072.16;5105212;28;20100;-64
2021/06/30 02:34:20;;;;;;;3.95;3.25;;;;;;;22.22;59.32;101068.69;5106755;28;20063;-64
2021/06/30 02:36:45;;;;;;;4.63;3.67;;;;;;;22.21;59.21;101070.50;5104794;28;20039;-64
2021/06/30 02:39:12;;;;;;;5.28;3.45;;;;;;;22.20;59.47;101071.50;5106120;28;20024;-64
2021/06/30 02:41:38;;;;;;;4.47;3.85;;;;;;;22.20;59.39;101063.56;5106603;28;20129;-64
2021/06/30 02:44:03;;;;;;;3.92;3.25;;;;;;;22.21;59.27;101057.25;5105867;28;20066;-64
2021/06/30 02:46:29;;;;;;;4.85;3.63;;;;;;;22.20;59.24;101063.56;5101715;28;20069;-64
2021/06/30 02:48:54;;;;;;;4.65;3.63;;;;;;;22.19;58.96;101056.63;5103103;28;20035;-64
2021/06/30 02:51:20;;;;;;;3.83;3.30;;;;;;;22.19;59.26;101059.28;5106549;28;20036;-64
2021/06/30 02:53:46;;;;;;;4.20;3.50;;;;;;;22.16;59.20;101053.53;5104799;28;20119;-64
2021/06/30 02:56:11;;;;;;;3.92;3.53;;;;;;;22.16;59.13;101054.34;5103811;28;20056;-64
2021/06/30 02:58:37;;;;;;;4.38;3.47;;;;;;;22.18;59.29;101059.47;5103944;28;20043;-64
2021/06/30 03:01:02;;;;;;;4.55;3.63;;;;;;;22.18;59.23;101062.13;5105528;28;20044;-64
2021/06/30 03:03:28;;;;;;;4.28;3.40;;;;;;;22.18;59.14;101065.59;5106093;28;20437;-64
2021/06/30 03:05:54;;;;;;;3.78;3.30;;;;;;;22.17;59.35;101069.25;5106002;28;20043;-64
2021/06/30 03:08:19;;;;;;;4.10;3.30;;;;;;;22.13;59.29;101070.66;5103819;28;20042;-64
2021/06/30 03:10:45;;;;;;;5.75;3.55;;;;;;;22.15;59.26;101063.31;5104734;28;20063;-64
2021/06/30 03:13:10;;;;;;;5.00;3.70;;;;;;;22.08;59.24;101054.47;5105958;28;20052;-64
2021/06/30 03:15:36;;;;;;;4.00;3.38;;;;;;;22.14;59.03;101060.84;5105551;28;20046;-64
2021/06/30 03:18:02;;;;;;;4.45;3.47;;;;;;;22.13;59.02;101059.22;5102874;28;20028;-64
2021/06/30 03:20:27;;;;;;;4.18;3.58;;;;;;;22.13;59.07;101065.34;5104257;28;20453;-64
2021/06/30 03:22:53;;;;;;;5.18;3.70;;;;;;;22.13;59.09;101067.16;5106644;28;20043;-64
2021/06/30 03:25:18;;;;;;;4.47;3.70;;;;;;;22.13;59.09;101067.16;5102693;28;20032;-64
2021/06/30 03:27:44;;;;;;;5.10;3.67;;;;;;;22.13;59.02;101059.22;5105260;28;20538;-64
2021/06/30 03:30:12;;;;;;;4.55;3.47;;;;;;;22.12;59.21;101069.00;5105799;28;20044;-64
2021/06/30 03:32:38;;;;;;;7.53;3.72;;;;;;;22.12;59.19;101068.19;5071073;28;20397;-64
2021/06/30 03:35:05;;;;;;;4.32;3.90;;;;;;;22.12;59.39;101073.50;5085980;28;20524;-64
2021/06/30 03:37:31;;;;;;;5.15;4.05;;;;;;;22.10;59.05;101068.38;5104000;28;20102;-64
2021/06/30 03:39:56;;;;;;;5.63;3.80;;;;;;;22.10;59.35;101073.69;5105877;28;20122;-64
2021/06/30 03:42:22;;;;;;;5.43;4.05;;;;;;;22.10;59.12;101070.22;5106220;28;20035;-64
2021/06/30 03:44:47;;;;;;;5.78;3.72;;;;;;;22.08;59.11;101061.59;5101211;28;20032;-64
2021/06/30 03:47:13;;;;;;;4.82;3.65;;;;;;;22.09;59.04;101063.25;5087578;28;20031;-64
2021/06/30 03:49:38;;;;;;;5.30;3.85;;;;;;;22.09;59.24;101073.88;5105487;28;20486;-64
2021/06/30 03:52:05;;;;;;;4.85;4.00;;;;;;;22.08;59.39;101086.28;5106278;28;20039;-64
2021/06/30 03:54:30;;;;;;;5.75;3.92;;;;;;;22.07;59.27;101074.03;5104630;28;20028;-64
2021/06/30 03:56:56;;;;;;;3.95;3.55;;;;;;;21.96;59.31;101058.59;5103118;28;20054;-64
2021/06/30 03:59:21;;;;;;;4.05;3.33;;;;;;;22.06;59.10;101076.88;5103271;28;20047;-64
2021/06/30 04:01:48;;;;;;;4.68;3.70;;;;;;;22.07;58.82;101081.16;5103501;28;20098;-64
2021/06/30 04:04:14;;;;;;;4.20;3.38;;;;;;;22.07;59.28;101086.47;5105552;28;20032;-63
2021/06/30 04:06:41;;;;;;;4.07;3.58;;;;;;;22.01;59.23;101072.09;5104030;28;20058;-64
2021/06/30 04:09:06;;;;;;;3.35;3.00;;;;;;;22.05;58.99;101091.16;5103911;28;20619;-64
2021/06/30 04:11:33;;;;;;;4.43;3.53;;;;;;;22.05;59.17;101086.66;5103918;28;20125;-64
2021/06/30 04:13:58;;;;;;;3.60;3.13;;;;;;;22.04;59.35;101085.00;5103525;28;20043;-64
2021/06/30 04:16:24;;;;;;;4.05;3.00;;;;;;;22.04;59.24;101092.94;5102383;28;20120;-64
2021/06/30 04:18:49;;;;;;;4.47;3.13;;;;;;;22.03;59.04;101088.66;5104478;28;20036;-64
2021/06/30 04:21:15;;;;;;;3.90;2.95;;;;;;;22.02;58.98;101093.13;5105133;28;20051;-64
2021/06/30 04:23:40;;;;;;;3.25;2.92;;;;;;;22.02;59.10;101092.31;5104210;28;20032;-64
2021/06/30 04:26:06;;;;;;;3.33;3.00;;;;;;;22.01;59.21;101096.78;5087362;28;20077;-64
2021/06/30 04:28:32;;;;;;;3.15;2.85;;;;;;;22.02;59.13;101097.63;5102803;28;20036;-63
2021/06/30 04:30:58;;;;;;;3.15;2.85;;;;;;;22.02;59.05;101102.91;5102062;28;20069;-64
2021/06/30 04:33:24;;;;;;;3.67;3.25;;;;;;;21.97;59.21;101097.38;5102803;28;20096;-64
2021/06/30 04:35:50;;;;;;;3.63;2.90;;;;;;;21.97;59.22;101095.53;5105406;28;20028;-64
2021/06/30 04:38:15;;;;;;;2.92;2.72;;;;;;;22.00;59.02;101089.84;5102332;28;20438;-64
2021/06/30 04:40:41;;;;;;;3.20;2.80;;;;;;;22.00;59.15;101102.28;5103801;28;20035;-64
2021/06/30 04:43:06;;;;;;;3.55;3.03;;;;;;;21.99;58.92;101088.22;5104188;28;20478;-64
2021/06/30 04:45:32;;;;;;;3.10;2.80;;;;;;;22.00;59.22;101089.03;5102094;28;20493;-64
2021/06/30 04:47:57;;;;;;;2.92;2.63;;;;;;;21.96;59.01;101079.81;5103441;28;20424;-64
2021/06/30 04:50:23;;;;;;;3.20;2.75;;;;;;;21.98;58.86;101086.56;5100396;28;20036;-64
2021/06/30 04:52:48;;;;;;;3.10;2.40;;;;;;;21.98;58.83;101091.88;5105369;28;20036;-64
2021/06/30 04:55:14;;;;;;;3.58;3.00;;;;;;;21.98;59.23;101085.75;5104725;28;20115;-64
2021/06/30 04:57:40;;;;;;;2.92;2.63;;;;;;;21.97;59.10;101090.22;5103326;28;21589;-64
2021/06/30 05:00:07;;;;;;;3.00;2.70;;;;;;;21.96;58.94;101083.28;5104765;28;20435;-64
2021/06/30 05:02:33;;;;;;;3.28;2.80;;;;;;;21.97;59.07;101084.94;5102567;28;20540;-64
2021/06/30 05:04:59;;;;;;;2.50;2.30;;;;;;;21.95;59.16;101080.81;5086488;28;20043;-64
2021/06/30 05:07:25;;;;;;;2.88;2.63;;;;;;;21.96;59.18;101083.28;5104265;28;20100;-62
2021/06/30 05:09:51;;;;;;;3.17;2.72;;;;;;;21.95;59.22;101079.00;5085234;28;20382;-65
2021/06/30 05:12:17;;;;;;;3.03;2.72;;;;;;;21.93;59.25;101085.50;5103301;28;20035;-65
2021/06/30 05:14:43;;;;;;;3.15;2.85;;;;;;;21.94;58.94;101080.00;5102450;28;20039;-65
2021/06/30 05:17:09;;;;;;;2.55;2.35;;;;;;;21.95;59.17;101081.66;5104820;28;20032;-64
2021/06/30 05:19:35;;;;;;;2.85;2.63;;;;;;;21.94;59.16;101095.91;5102911;28;20449;-65
2021/06/30 05:22:00;;;;;;;2.90;2.50;;;;;;;21.93;58.97;101088.97;5103724;28;20054;-65
2021/06/30 05:24:27;;;;;;;2.63;2.42;;;;;;;21.93;58.93;101090.81;5101497;28;20069;-65
2021/06/30 05:26:52;;;;;;;3.05;2.53;;;;;;;21.94;58.96;101090.59;5104139;28;20036;-65
2021/06/30 05:29:18;;;;;;;2.60;2.40;;;;;;;21.93;59.05;101085.50;5104101;28;20093;-65
2021/06/30 05:31:44;;;;;;;2.83;2.50;;;;;;;21.93;58.90;101088.16;5103671;28;20038;-65
2021/06/30 05:34:09;;;;;;;2.88;2.50;;;;;;;21.93;59.09;101085.50;5102811;28;20036;-65
2021/06/30 05:36:35;;;;;;;2.65;2.45;;;;;;;21.93;59.21;101086.31;5100783;28;20125;-65
2021/06/30 05:39:01;;;;;;;2.40;2.20;;;;;;;21.93;59.11;101086.31;5104004;28;20040;-65
2021/06/30 05:41:26;;;;;;;2.97;2.53;;;;;;;21.93;58.88;101088.97;5103718;28;20122;-65
2021/06/30 05:43:52;;;;;;;2.60;2.40;;;;;;;21.91;58.89;101085.69;5102414;28;20051;-65
2021/06/30 05:46:18;;;;;;;2.28;2.10;;;;;;;21.93;59.16;101093.44;5104565;28;20027;-65
2021/06/30 05:48:45;;;;;;;2.40;2.20;;;;;;;21.92;59.22;101100.59;5103042;28;20028;-66
2021/06/30 05:51:11;;;;;;;2.90;2.60;;;;;;;21.93;58.91;101098.75;5103031;28;20042;-66
2021/06/30 05:53:37;;;;;;;2.72;2.40;;;;;;;21.90;59.15;101104.41;5102369;28;20048;-65
2021/06/30 05:56:03;;;;;;;3.92;2.60;;;;;;;22.02;59.17;101102.91;5058856;28;20057;-63
2021/06/30 05:58:29;;;;;;;2.47;2.28;;;;;;;22.13;58.77;101096.34;5086647;28;20061;-63
2021/06/30 06:00:55;;;;;;;3.17;2.40;;;;;;;22.24;58.98;101099.31;5087878;28;20421;-63
2021/06/30 06:03:20;;;;;;;2.45;2.22;;;;;;;22.31;58.58;101091.44;5104920;28;20091;-63
2021/06/30 06:05:46;;;;;;;2.50;2.30;;;;;;;22.40;58.83;101098.22;5104661;28;20044;-63
2021/06/30 06:08:11;;;;;;;2.92;2.60;;;;;;;22.44;58.82;101099.53;5106552;28;20122;-65
2021/06/30 06:10:37;;;;;;;2.60;2.40;;;;;;;22.40;58.99;101098.22;5083361;28;20052;-66
2021/06/30 06:13:03;;;;;;;2.60;2.40;;;;;;;22.38;58.64;101097.59;5099314;28;20085;-66
2021/06/30 06:15:28;;;;;;;2.60;2.40;;;;;;;22.35;58.39;101094.50;5106643;28;20181;-66
2021/06/30 06:17:54;;;;;;;2.28;2.08;;;;;;;22.38;58.50;101102.91;5086295;28;20122;-66
2021/06/30 06:20:19;;;;;;;2.47;2.28;;;;;;;22.39;58.81;101099.25;5088339;28;20085;-65
2021/06/30 06:22:45;;;;;;;2.67;2.13;;;;;;;22.39;58.59;101101.09;5067347;28;20411;-66
2021/06/30 06:25:11;;;;;;;2.97;2.53;;;;;;;22.41;58.13;101110.47;5104153;28;20475;-66
2021/06/30 06:27:38;;;;;;;2.60;2.40;;;;;;;22.37;58.43;101103.09;5087366;28;20036;-66
2021/06/30 06:30:06;;;;;;;2.55;2.35;;;;;;;22.44;58.27;101111.94;5107108;28;20410;-66
2021/06/30 06:32:32;;;;;;;3.13;2.47;;;;;;;22.43;57.98;101107.63;5083324;27;20035;-64
2021/06/30 06:34:57;;;;;;;2.33;2.13;;;;;;;22.44;58.13;101109.28;5104625;28;20168;-65
2021/06/30 06:37:23;;;;;;;2.38;2.03;;;;;;;22.43;58.08;101113.78;5082820;28;20048;-65
2021/06/30 06:39:49;;;;;;;2.50;2.30;;;;;;;22.44;57.84;101110.13;5106906;28;20046;-66
2021/06/30 06:42:14;;;;;;;2.60;2.40;;;;;;;22.44;57.83;101110.13;5085460;28;20207;-65
2021/06/30 06:44:41;;;;;;;2.78;2.40;;;;;;;22.44;58.10;101099.53;5096441;28;20039;-66
2021/06/30 06:47:07;;;;;;;2.47;2.28;;;;;;;22.45;57.95;101101.16;5104962;28;20075;-65
2021/06/30 06:49:33;;;;;;;2.83;2.30;;;;;;;22.45;57.99;101108.31;5080507;28;20097;-65
2021/06/30 06:51:59;;;;;;;2.40;2.20;;;;;;;22.45;57.74;101103.81;5103728;28;20054;-65
2021/06/30 06:54:25;;;;;;;2.35;2.15;;;;;;;22.49;57.58;101096.28;5069280;28;20036;-66
2021/06/30 06:56:51;;;;;;;4.50;2.65;;;;;;;21.73;59.13;101074.69;5094366;28;20429;-65
2021/06/30 06:59:16;;;;;;;3.65;2.88;;;;;;;21.92;59.19;101107.72;5063701;28;20069;-66
2021/06/30 07:01:42;;;;;;;6.38;3.20;;;;;;;21.70;59.37;101102.34;5098174;28;20035;-66
2021/06/30 07:04:07;;;;;;;3.50;2.60;;;;;;;21.61;59.13;101103.47;5078104;28;20150;-67
2021/06/30 07:06:33;;;;;;;4.93;3.00;;;;;;;21.50;59.10;101095.97;5093545;28;20051;-66
2021/06/30 07:08:59;;;;;;;5.53;2.85;;;;;;;21.34;59.64;101104.94;5079659;28;20051;-67
2021/06/30 07:11:24;;;;;;;9.32;3.80;;;;;;;21.41;60.26;101105.03;5076168;28;20032;-66
2021/06/30 07:13:51;;;;;;;4.45;2.92;;;;;;;21.47;60.38;101116.72;5094058;28;20028;-67
2021/06/30 07:16:16;;;;;;;5.00;2.90;;;;;;;21.87;60.00;101121.50;5085028;28;20082;-66
2021/06/30 07:18:42;;;;;;;7.28;3.08;;;;;;;22.09;59.39;101116.31;5100700;28;20836;-66
2021/06/30 07:21:09;;;;;;;3.38;2.65;;;;;;;22.25;59.12;101116.03;5080333;28;20382;-66
2021/06/30 07:23:35;;;;;;;4.20;2.83;;;;;;;22.35;58.59;101121.03;5098335;28;20039;-64
2021/06/30 07:26:00;;;;;;;4.35;2.78;;;;;;;22.21;58.18;101131.50;5065392;28;20318;-66
2021/06/30 07:28:26;;;;;;;4.93;2.75;;;;;;;22.10;57.75;101134.69;5104095;28;20041;-66
2021/06/30 07:30:52;;;;;;;6.80;3.63;;;;;;;21.30;59.27;101139.91;5068519;28;20513;-66
2021/06/30 07:33:18;;;;;;;6.20;3.15;;;;;;;20.89;60.30;101135.00;5104264;28;20042;-65
2021/06/30 07:35:44;;;;;;;4.97;3.00;;;;;;;20.28;62.49;101130.63;5078030;28;20032;-65
2021/06/30 07:38:10;;;;;;;7.35;4.10;;;;;;;20.85;60.88;101133.72;5106413;28;20020;-66
2021/06/30 07:40:36;;;;;;;3.67;3.20;;;;;;;20.61;61.61;101129.44;5078501;28;20038;-66
2021/06/30 07:43:02;;;;;;;6.50;3.50;;;;;;;20.83;61.08;101130.44;5105657;28;20116;-66
2021/06/30 07:45:28;;;;;;;6.53;3.75;;;;;;;20.19;62.79;101132.50;5089246;28;20049;-67
2021/06/30 07:47:54;;;;;;;4.47;3.20;;;;;;;20.66;61.15;101129.75;5078801;28;20084;-66
2021/06/30 07:50:20;;;;;;;4.80;3.45;;;;;;;20.93;60.24;101130.97;5103632;28;20040;-66
2021/06/30 07:52:48;;;;;;;6.90;3.20;;;;;;;21.10;60.50;101140.41;5076459;27;20042;-67
2021/06/30 07:55:17;;;;;;;5.13;3.50;;;;;;;20.77;60.53;101144.34;5102034;28;20036;-66
2021/06/30 07:57:44;;;;;;;5.97;3.03;;;;;;;20.70;60.69;101143.44;5076889;27;20103;-66
2021/06/30 08:00:11;;;;;;;5.78;3.70;;;;;;;20.25;61.60;101145.03;5104222;28;20775;-67
2021/06/30 08:02:40;;;;;;;6.47;3.53;;;;;;;20.63;61.86;101142.47;5075512;28;20038;-66
2021/06/30 08:05:08;;;;;;;3.67;2.72;;;;;;;20.86;60.78;101135.34;5103260;28;20083;-68
2021/06/30 08:07:34;;;;;;;4.50;2.67;;;;;;;21.12;59.61;101130.47;5079504;28;20043;-65
2021/06/30 08:10:00;;;;;;;4.82;3.00;;;;;;;20.52;61.52;101128.69;5103932;28;20036;-65
2021/06/30 08:12:25;;;;;;;4.97;3.00;;;;;;;20.48;61.44;101127.41;5077831;28;20374;-65
2021/06/30 08:14:52;;;;;;;4.68;2.83;;;;;;;20.89;60.60;101137.66;5100004;28;20032;-65
2021/06/30 08:17:17;;;;;;;5.90;3.25;;;;;;;21.00;60.22;101128.44;5064138;28;20028;-65
2021/06/30 08:19:43;;;;;;;3.30;3.00;;;;;;;20.48;61.47;101140.63;5095862;28;20042;-66
2021/06/30 08:22:11;;;;;;;5.20;3.08;;;;;;;20.57;61.92;101138.72;5105710;28;20059;-66
2021/06/30 08:24:44;;;;;;;3.40;3.05;;;;;;;20.86;61.20;101131.91;5052635;28;20044;-65
2021/06/30 08:27:11;;;;;;;5.25;3.00;;;;;;;20.55;61.92;101140.72;5100390;28;20071;-65
2021/06/30 08:29:37;;;;;;;4.30;2.75;;;;;;;20.73;60.58;101145.72;5078040;28;20036;-65
2021/06/30 08:32:04;;;;;;;4.50;2.90;;;;;;;19.88;63.60;101151.81;5088469;28;20052;-66
2021/06/30 08:34:30;;;;;;;5.70;2.80;;;;;;;20.06;62.68;101151.56;5073933;27;20412;-65
2021/06/30 08:37:01;;;;;;;4.43;3.00;;;;;;;19.44;65.23;101153.28;5100028;28;20465;-66
2021/06/30 08:39:28;;;;;;;6.38;3.03;;;;;;;19.49;64.82;101170.25;5071824;28;20055;-66
2021/06/30 08:41:54;;;;;;;4.82;3.08;;;;;;;19.20;65.74;101152.31;5095269;28;20114;-66
2021/06/30 08:44:20;;;;;;;8.35;3.53;;;;;;;19.69;64.21;101161.97;5069717;28;20619;-65
2021/06/30 08:46:47;;;;;;;5.03;3.10;;;;;;;20.46;62.23;101160.28;5096239;28;20107;-65
2021/06/30 08:49:15;;;;;;;3.75;2.90;;;;;;;21.01;60.63;101162.69;5075215;28;20038;-64
2021/06/30 08:51:43;;;;;;;3.60;2.65;;;;;;;21.43;59.18;101163.97;5093843;28;20098;-65
2021/06/30 08:54:12;;;;;;;5.18;3.25;;;;;;;21.45;59.18;101163.78;5074467;28;20050;-65
2021/06/30 08:56:40;;;;;;;4.85;2.70;;;;;;;21.43;59.73;101163.97;5102029;28;20031;-65
2021/06/30 08:59:06;;;;;;;3.25;2.65;;;;;;;21.61;59.46;101161.78;5070341;28;21517;-66
2021/06/30 09:01:33;;;;;;;5.35;2.65;;;;;;;21.37;59.59;101164.69;5098452;28;20043;-66
2021/06/30 09:04:00;;;;;;;3.20;2.80;;;;;;;21.49;59.18;101165.88;5062586;28;20036;-65
2021/06/30 09:06:27;;;;;;;3.53;2.50;;;;;;;21.48;59.50;101160.75;5097558;28;20092;-64
2021/06/30 09:08:56;;;;;;;3.20;2.53;;;;;;;21.55;59.05;101164.34;5071547;28;20027;-70
2021/06/30 09:11:24;;;;;;;5.45;2.60;;;;;;;21.55;58.99;101169.63;5085340;28;20027;-65
2021/06/30 09:14:12;;;;;;;2.60;2.40;;;;;;;21.25;58.80;101172.25;5072545;28;20080;-65
2021/06/30 09:17:01;;;;;;;4.32;2.65;;;;;;;20.95;60.13;101173.16;5066095;28;20134;-66
2021/06/30 09:19:47;;;;;;;4.22;2.70;;;;;;;20.75;60.83;101170.19;5070468;28;20496;-64
2021/06/30 09:22:13;;;;;;;3.75;2.40;;;;;;;21.06;59.90;101164.78;5085349;28;20046;-65
2021/06/30 09:24:39;;;;;;;4.32;2.50;;;;;;;21.10;59.28;101148.38;5053439;28;21428;-65
2021/06/30 09:27:05;;;;;;;3.28;2.70;;;;;;;21.42;58.86;101165.78;5098984;28;20051;-64
2021/06/30 09:29:31;;;;;;;3.67;2.65;;;;;;;21.42;59.52;101168.44;5073878;28;20035;-64
2021/06/30 09:31:57;;;;;;;3.10;2.60;;;;;;;21.63;58.70;101166.88;5102457;28;20040;-64
2021/06/30 09:34:27;;;;;;;3.60;2.47;;;;;;;21.70;58.60;101167.78;5066780;27;20042;-65
2021/06/30 09:37:05;;;;;;;3.90;2.70;;;;;;;21.44;58.55;101164.78;5100201;28;20045;-65
2021/06/30 09:39:35;;;;;;;3.78;2.63;;;;;;;20.32;61.68;101168.97;5091497;28;20481;-66
2021/06/30 09:42:12;;;;;;;4.05;2.83;;;;;;;20.88;59.82;101172.25;5100216;28;20045;-66
2021/06/30 09:44:42;;;;;;;5.10;3.00;;;;;;;20.78;60.21;101169.81;5079653;28;21489;-64
2021/06/30 09:47:08;;;;;;;5.95;3.35;;;;;;;20.60;61.04;101167.47;5105901;28;20753;-66
2021/06/30 09:49:38;;;;;;;2.58;2.38;;;;;;;21.09;60.21;101162.59;5089336;28;20108;-66
2021/06/30 09:52:08;;;;;;;2.90;2.60;;;;;;;21.50;59.02;101166.69;5091096;28;20038;-65
2021/06/30 09:54:34;;;;;;;3.70;2.70;;;;;;;21.63;58.29;101175.66;5103238;28;20047;-65
2021/06/30 09:57:08;;;;;;;3.72;2.90;;;;;;;21.75;57.71;101173.38;5076091;28;20131;-64
2021/06/30 09:59:37;;;;;;;3.92;2.67;;;;;;;21.66;57.96;101161.22;5083598;28;20515;-65
2021/06/30 10:02:20;;;;;;;3.37;2.73;;;;;;;21.49;58.72;101173.81;5074594;27;20055;-66
2021/06/30 10:04:48;;;;;;;4.18;3.00;;;;;;;21.34;59.33;101171.16;5105183;28;20063;-65
2021/06/30 10:07:16;;;;;;;5.05;3.05;;;;;;;20.67;59.73;101171.06;5067982;28;20039;-66
2021/06/30 10:09:48;;;;;;;6.60;3.30;;;;;;;20.14;61.61;101185.91;5102077;28;20067;-66
2021/06/30 10:12:15;;;;;;;4.35;3.10;;;;;;;19.66;63.88;101186.09;5072782;27;20055;-66
2021/06/30 10:14:44;;;;;;;4.82;3.45;;;;;;;19.44;64.36;101166.50;5104809;28;20034;-66
2021/06/30 10:17:12;;;;;;;4.28;3.20;;;;;;;20.01;63.15;101195.41;5075249;28;20421;-66
2021/06/30 10:19:39;;;;;;;4.82;3.00;;;;;;;20.76;61.07;101187.69;5101529;28;20107;-65
2021/06/30 10:22:07;;;;;;;4.78;3.20;;;;;;;20.52;61.03;101196.66;5062678;28;20037;-66
2021/06/30 10:24:34;;;;;;;5.50;3.03;;;;;;;20.80;60.43;101187.16;5098188;28;20055;-65
2021/06/30 10:27:00;;;;;;;3.28;2.65;;;;;;;21.00;59.92;101187.50;5100202;28;20751;-66
2021/06/30 10:29:28;;;;;;;3.55;2.90;;;;;;;21.18;59.16;101165.97;5071588;28;20038;-65
2021/06/30 10:32:05;;;;;;;4.80;2.83;;;;;;;21.30;58.97;101167.22;5102357;28;20864;-65
2021/06/30 10:34:41;;;;;;;3.55;2.90;;;;;;;21.18;59.32;101176.56;5086523;28;20063;-69
2021/06/30 10:37:37;;;;;;;4.53;3.28;;;;;;;20.35;62.39;101195.06;5101169;28;20766;-66
2021/06/30 10:40:07;;;;;;;3.67;2.70;;;;;;;20.58;61.43;101192.47;5054847;28;20405;-66
2021/06/30 10:42:38;;;;;;;3.42;2.60;;;;;;;20.68;60.95;101187.78;5104213;28;20487;-67
2021/06/30 10:45:17;;;;;;;3.17;2.40;;;;;;;21.12;60.32;101188.72;5074681;28;20058;-67
2021/06/30 10:47:49;;;;;;;3.30;2.50;;;;;;;21.33;58.85;101184.59;5102811;28;20031;-68
2021/06/30 10:50:23;;;;;;;3.10;2.80;;;;;;;21.01;60.21;101183.06;5071835;28;20040;-68
2021/06/30 10:52:50;;;;;;;3.75;3.08;;;;;;;20.62;60.96;101191.09;5105969;28;20101;-68
2021/06/30 10:55:37;;;;;;;3.50;2.90;;;;;;;21.01;60.27;101186.53;5069172;27;20039;-67
2021/06/30 10:58:15;;;;;;;4.80;3.00;;;;;;;21.26;59.25;101181.84;5104125;28;20048;-67
2021/06/30 11:00:48;;;;;;;3.33;2.60;;;;;;;20.89;60.00;101184.47;5076002;28;20046;-67
2021/06/30 11:03:45;;;;;;;4.70;2.50;;;;;;;21.10;59.60;101182.78;5104839;28;20108;-66
2021/06/30 11:06:12;;;;;;;3.38;2.85;;;;;;;20.76;60.16;101187.69;5077958;27;20050;-67
2021/06/30 11:08:52;;;;;;;3.65;2.67;;;;;;;20.50;61.28;101182.78;5105447;28;20043;-66
2021/06/30 11:11:17;;;;;;;;;;;;;;;20.59;60.95;101188.81;5065368;27;20104;-67
2021/06/30 11:14:06;;;;;;;3.13;2.65;;;;;;;20.62;60.71;101196.41;5100435;28;20622;-65
2021/06/30 11:16:45;;;;;;;3.17;2.80;;;;;;;20.41;61.12;101192.56;5057057;28;20477;-65
2021/06/30 11:21:58;;;;;;;3.75;2.53;;;;;;;21.26;59.24;101191.63;5070629;28;20687;-64
2021/06/30 11:27:15;;;;;;;3.60;2.55;;;;;;;21.42;58.24;101194.94;5076536;28;20035;-69
2021/06/30 11:29:54;;;;;;;3.53;2.58;;;;;;;21.18;58.92;101183.69;5104981;28;20128;-66